createdAt,value
2019-01-06T00:02:33.429Z,4.07
2019-01-06T00:05:40.620Z,3.50
2019-01-06T00:08:47.712Z,4.30
2019-01-06T00:11:35.898Z,4.47
2019-01-06T00:14:24.022Z,4.83
2019-01-06T00:17:31.170Z,4.57
2019-01-06T00:20:19.365Z,4.83
2019-01-06T00:23:07.505Z,5.27
2019-01-06T00:26:14.621Z,4.93
2019-01-06T00:29:21.793Z,5.77
2019-01-06T00:32:09.930Z,5.63
2019-01-06T00:35:15.595Z,5.80
2019-01-06T00:38:03.771Z,7.17
2019-01-06T00:41:10.976Z,13.60
2019-01-06T00:43:59.108Z,6.73
2019-01-06T00:47:06.257Z,7.57
2019-01-06T00:50:13.389Z,9.30
2019-01-06T00:53:01.488Z,6.80
2019-01-06T00:56:08.634Z,8.23
2019-01-06T00:58:56.788Z,7.43
2019-01-06T01:01:44.959Z,7.20
2019-01-06T01:04:52.377Z,13.00
2019-01-06T01:07:59.461Z,6.63
2019-01-06T01:11:06.618Z,5.40
2019-01-06T01:14:13.685Z,4.97
2019-01-06T01:17:20.853Z,5.47
2019-01-06T01:20:08.880Z,6.73
2019-01-06T01:23:15.958Z,5.50
2019-01-06T01:26:23.054Z,5.90
2019-01-06T01:29:30.118Z,5.97
2019-01-06T01:32:37.229Z,5.73
2019-01-06T01:35:25.346Z,4.80
2019-01-06T01:38:32.422Z,5.80
2019-01-06T01:41:39.524Z,6.43
2019-01-06T01:44:46.591Z,7.03
2019-01-06T01:47:53.781Z,5.40
2019-01-06T01:51:00.886Z,4.73
2019-01-06T01:54:07.991Z,5.33
2019-01-06T01:57:15.104Z,5.30
2019-01-06T02:00:22.178Z,10.10
2019-01-06T02:03:29.367Z,6.80
2019-01-06T02:06:17.569Z,7.87
2019-01-06T02:09:24.683Z,3.80
2019-01-06T02:12:31.929Z,7.23
2019-01-06T02:15:39.111Z,11.57
2019-01-06T02:18:27.261Z,16.90
2019-01-06T02:21:34.394Z,15.77
2019-01-06T02:24:22.515Z,6.30
2019-01-06T02:27:10.688Z,7.83
2019-01-06T02:29:58.794Z,3.50
2019-01-06T02:32:59.136Z,2.90
2019-01-06T02:36:06.355Z,2.90
2019-01-06T02:39:13.525Z,2.07
2019-01-06T02:42:01.537Z,1.80
2019-01-06T02:44:49.788Z,1.80
2019-01-06T02:47:56.896Z,2.10
2019-01-06T02:50:44.808Z,2.10
2019-01-06T02:53:32.817Z,1.63
2019-01-06T02:56:39.942Z,1.80
2019-01-06T02:59:27.955Z,1.50
2019-01-06T03:02:35.059Z,1.90
2019-01-06T03:05:42.160Z,1.63
2019-01-06T03:08:49.285Z,1.50
2019-01-06T03:11:57.839Z,1.67
2019-01-06T03:14:45.935Z,1.57
2019-01-06T03:17:53.083Z,1.60
2019-01-06T03:21:00.155Z,1.40
2019-01-06T03:24:07.258Z,1.17
2019-01-06T03:27:14.331Z,1.17
2019-01-06T03:30:21.448Z,1.20
2019-01-06T03:33:09.477Z,1.00
2019-01-06T03:36:16.559Z,1.03
2019-01-06T03:39:23.662Z,1.27
2019-01-06T03:42:25.396Z,0.90
2019-01-06T03:45:32.512Z,1.00
2019-01-06T03:48:39.724Z,0.93
2019-01-06T03:51:46.798Z,0.93
2019-01-06T03:54:53.913Z,2.57
2019-01-06T03:58:01.016Z,1.63
2019-01-06T04:00:58.947Z,1.40
2019-01-06T04:04:06.049Z,1.90
2019-01-06T04:07:13.176Z,2.33
2019-01-06T04:10:20.302Z,2.77
2019-01-06T04:13:27.413Z,3.23
2019-01-06T04:16:34.538Z,5.40
2019-01-06T04:19:41.644Z,4.13
2019-01-06T04:22:48.730Z,5.00
2019-01-06T04:25:55.880Z,6.00
2019-01-06T04:28:43.961Z,6.30
2019-01-06T04:31:32.025Z,10.77
2019-01-06T04:34:39.136Z,5.83
2019-01-06T04:37:46.225Z,3.77
2019-01-06T04:40:53.331Z,5.53
2019-01-06T04:43:41.307Z,4.30
2019-01-06T04:46:29.454Z,5.87
2019-01-06T04:49:17.734Z,3.10
2019-01-06T04:52:17.224Z,3.33
2019-01-06T04:55:24.319Z,3.50
2019-01-06T04:58:31.404Z,3.33
2019-01-06T05:01:38.616Z,2.90
2019-01-06T05:04:45.985Z,2.50
2019-01-06T05:07:53.066Z,2.80
2019-01-06T05:11:00.170Z,3.00
2019-01-06T05:14:07.250Z,2.30
2019-01-06T05:17:09.161Z,2.63
2019-01-06T05:20:16.238Z,2.83
2019-01-06T05:23:23.286Z,5.23
2019-01-06T05:26:30.359Z,5.63
2019-01-06T05:29:37.463Z,2.60
2019-01-06T05:32:44.574Z,1.93
2019-01-06T05:35:32.815Z,1.90
2019-01-06T05:38:39.930Z,2.10
2019-01-06T05:41:47.005Z,2.53
2019-01-06T05:44:35.022Z,3.40
2019-01-06T05:47:22.997Z,2.10
2019-01-06T05:50:11.082Z,2.13
2019-01-06T05:53:18.217Z,1.90
2019-01-06T05:56:06.273Z,1.57
2019-01-06T05:58:54.422Z,1.40
2019-01-06T06:02:01.518Z,1.80
2019-01-06T06:05:08.628Z,1.90
2019-01-06T06:08:15.747Z,1.97
2019-01-06T06:11:22.818Z,2.00
2019-01-06T06:14:28.780Z,2.00
2019-01-06T06:17:17.104Z,3.70
2019-01-06T06:20:24.211Z,3.10
2019-01-06T06:23:31.310Z,2.43
2019-01-06T06:26:38.413Z,2.60
2019-01-06T06:29:26.535Z,2.67
2019-01-06T06:32:33.618Z,2.50
2019-01-06T06:35:40.725Z,2.57
2019-01-06T06:38:48.099Z,2.40
2019-01-06T06:41:55.206Z,3.30
2019-01-06T06:45:02.317Z,2.47
2019-01-06T06:48:09.430Z,2.40
2019-01-06T06:51:17.997Z,2.37
2019-01-06T06:54:25.115Z,2.60
2019-01-06T06:57:51.345Z,3.00
2019-01-06T07:04:27.581Z,3.43
2019-01-06T07:07:35.175Z,4.03
2019-01-06T07:10:42.339Z,4.27
2019-01-06T07:13:49.432Z,4.50
2019-01-06T07:17:15.744Z,4.17
2019-01-06T07:20:22.856Z,4.43
2019-01-06T07:23:29.959Z,5.00
2019-01-06T07:26:37.107Z,6.33
2019-01-06T07:29:41.531Z,6.43
2019-01-06T07:32:48.611Z,6.67
2019-01-06T07:35:55.731Z,6.57
2019-01-06T07:39:02.827Z,6.93
2019-01-06T07:42:09.961Z,9.37
2019-01-06T07:45:17.088Z,9.50
2019-01-06T07:48:24.185Z,11.07
2019-01-06T07:51:12.269Z,9.07
2019-01-06T07:54:00.334Z,8.90
2019-01-06T07:56:48.443Z,9.17
2019-01-06T07:59:55.575Z,14.60
2019-01-06T08:02:43.630Z,14.87
2019-01-06T08:05:31.644Z,11.67
2019-01-06T08:08:38.715Z,12.60
2019-01-06T08:11:45.831Z,14.10
2019-01-06T08:14:52.964Z,10.90
2019-01-06T08:18:00.047Z,11.47
2019-01-06T08:20:48.140Z,10.43
2019-01-06T08:23:55.328Z,10.20
2019-01-06T08:27:02.468Z,12.07
2019-01-06T08:30:09.604Z,11.63
2019-01-06T08:32:57.731Z,13.20
2019-01-06T08:36:04.920Z,10.13
2019-01-06T08:39:12.038Z,11.70
2019-01-06T08:42:19.258Z,11.00
2019-01-06T08:45:26.345Z,38.23
2019-01-06T08:48:33.526Z,32.37
2019-01-06T08:51:21.617Z,27.60
2019-01-06T08:54:28.766Z,17.23
2019-01-06T08:57:35.891Z,17.57
2019-01-06T09:00:43.106Z,15.40
2019-01-06T09:03:50.216Z,14.80
2019-01-06T09:06:39.710Z,11.40
2019-01-06T09:09:46.995Z,12.30
2019-01-06T09:12:54.199Z,14.20
2019-01-06T09:16:01.320Z,15.23
2019-01-06T09:19:08.461Z,11.47
2019-01-06T09:21:56.560Z,11.53
2019-01-06T09:24:46.926Z,12.67
2019-01-06T09:27:35.023Z,10.80
2019-01-06T09:30:42.189Z,10.63
2019-01-06T09:33:49.586Z,11.53
2019-01-06T09:36:37.676Z,11.70
2019-01-06T09:39:26.672Z,12.70
2019-01-06T09:42:33.787Z,11.40
2019-01-06T09:45:40.900Z,14.27
2019-01-06T09:48:47.977Z,11.27
2019-01-06T09:51:55.110Z,9.27
2019-01-06T09:55:02.227Z,9.13
2019-01-06T09:58:00.856Z,8.20
2019-01-06T10:01:07.927Z,9.53
2019-01-06T10:04:15.052Z,10.07
2019-01-06T10:07:22.385Z,10.80
2019-01-06T10:10:29.902Z,8.67
2019-01-06T10:17:22.383Z,9.50
2019-01-06T10:20:29.506Z,8.97
2019-01-06T10:23:17.560Z,8.87
2019-01-06T10:31:46.588Z,10.13
2019-01-06T10:34:53.781Z,8.13
2019-01-06T10:38:00.911Z,7.27
2019-01-06T10:41:08.038Z,6.40
2019-01-06T10:44:15.158Z,7.47
2019-01-06T10:47:22.763Z,11.07
2019-01-06T10:50:29.983Z,7.07
2019-01-06T10:53:37.142Z,7.60
2019-01-06T10:56:44.218Z,7.23
2019-01-06T10:59:51.361Z,8.20
2019-01-06T11:02:58.474Z,9.43
2019-01-06T11:05:46.584Z,17.10
2019-01-06T11:08:53.722Z,13.47
2019-01-06T11:12:00.795Z,11.37
2019-01-06T11:15:07.916Z,8.30
2019-01-06T11:17:56.070Z,8.20
2019-01-06T11:20:55.008Z,7.73
2019-01-06T11:24:03.551Z,7.90
2019-01-06T11:27:10.949Z,8.67
2019-01-06T11:30:18.080Z,10.07
2019-01-06T11:33:25.283Z,7.67
2019-01-06T11:36:30.807Z,6.00
2019-01-06T11:39:18.965Z,5.03
2019-01-06T11:42:26.058Z,5.50
2019-01-06T11:45:33.285Z,5.53
2019-01-06T11:48:40.503Z,5.40
2019-01-06T11:51:47.779Z,7.27
2019-01-06T11:54:45.675Z,6.77
2019-01-06T11:57:52.799Z,6.27
2019-01-06T12:00:40.917Z,6.30
2019-01-06T12:03:48.053Z,7.37
2019-01-06T12:06:55.193Z,4.80
2019-01-06T12:09:43.281Z,5.93
2019-01-06T12:12:50.394Z,6.97
2019-01-06T12:15:57.683Z,5.10
2019-01-06T12:19:05.007Z,3.97
2019-01-06T12:22:12.186Z,3.17
2019-01-06T12:25:19.530Z,2.70
2019-01-06T12:28:23.407Z,2.10
2019-01-06T12:31:30.582Z,3.07
2019-01-06T12:34:37.745Z,6.63
2019-01-06T12:37:44.855Z,4.63
2019-01-06T12:40:44.029Z,3.70
2019-01-06T12:43:51.181Z,4.53
2019-01-06T12:46:51.421Z,2.53
2019-01-06T12:49:58.552Z,2.50
2019-01-06T12:53:05.691Z,3.17
2019-01-06T12:56:12.788Z,3.20
2019-01-06T12:59:00.859Z,5.93
2019-01-06T13:02:08.072Z,3.60
2019-01-06T13:05:15.287Z,2.20
2019-01-06T13:08:03.520Z,3.50
2019-01-06T13:11:03.862Z,3.73
2019-01-06T13:14:11.011Z,8.70
2019-01-06T13:17:18.127Z,12.30
2019-01-06T13:20:25.255Z,8.87
2019-01-06T13:23:32.351Z,6.13
2019-01-06T13:26:39.480Z,4.67
2019-01-06T13:29:48.107Z,4.93
2019-01-06T13:32:55.211Z,5.83
2019-01-06T13:36:02.357Z,7.07
2019-01-06T13:39:09.483Z,7.93
2019-01-06T13:42:16.751Z,8.23
2019-01-06T13:45:24.053Z,8.23
2019-01-06T13:48:26.060Z,7.90
2019-01-06T13:51:33.224Z,9.50
2019-01-06T13:54:40.449Z,8.70
2019-01-06T13:57:47.630Z,7.93
2019-01-06T14:00:54.837Z,8.30
2019-01-06T14:04:02.054Z,7.83
2019-01-06T14:07:09.190Z,8.77
2019-01-06T14:10:16.259Z,8.27
2019-01-06T14:13:23.372Z,8.83
2019-01-06T14:16:30.458Z,10.67
2019-01-06T14:19:18.571Z,7.73
2019-01-06T14:22:25.659Z,7.13
2019-01-06T14:25:32.776Z,6.97
2019-01-06T14:28:39.881Z,6.97
2019-01-06T14:31:46.993Z,8.37
2019-01-06T14:34:54.061Z,7.80
2019-01-06T14:38:01.175Z,7.53
2019-01-06T14:40:59.074Z,8.47
2019-01-06T14:44:06.171Z,6.60
2019-01-06T14:46:54.323Z,7.20
2019-01-06T14:50:01.433Z,7.47
2019-01-06T14:53:08.657Z,8.77
2019-01-06T14:55:56.703Z,8.00
2019-01-06T14:59:03.824Z,9.00
2019-01-06T15:02:10.908Z,9.43
2019-01-06T15:05:18.078Z,7.13
2019-01-06T15:08:25.202Z,7.73
2019-01-06T15:11:13.343Z,5.80
2019-01-06T15:14:20.604Z,7.03
2019-01-06T15:17:27.899Z,8.20
2019-01-06T15:20:16.055Z,6.90
2019-01-06T15:23:24.227Z,5.33
2019-01-06T15:26:31.379Z,6.00
2019-01-06T15:29:38.531Z,6.80
2019-01-06T15:32:45.657Z,6.83
2019-01-06T15:35:54.202Z,6.57
2019-01-06T15:39:01.370Z,6.93
2019-01-06T15:42:09.083Z,5.60
2019-01-06T15:45:16.344Z,4.67
2019-01-06T15:48:23.575Z,5.00
2019-01-06T15:51:30.768Z,7.30
2019-01-06T15:54:37.934Z,4.63
2019-01-06T15:57:45.315Z,4.60
2019-01-06T16:00:45.104Z,3.77
2019-01-06T16:03:52.263Z,3.57
2019-01-06T16:06:59.551Z,3.20
2019-01-06T16:10:06.702Z,3.10
2019-01-06T16:13:13.820Z,2.83
2019-01-06T16:16:01.921Z,3.33
2019-01-06T16:19:09.141Z,2.90
2019-01-06T16:22:16.301Z,3.47
2019-01-06T16:25:23.639Z,3.30
2019-01-06T16:28:30.763Z,7.87
2019-01-06T16:31:19.152Z,2.40
2019-01-06T16:34:26.352Z,3.20
2019-01-06T16:37:33.458Z,3.20
2019-01-06T16:40:40.626Z,3.33
2019-01-06T16:43:47.731Z,3.90
2019-01-06T16:46:54.917Z,4.53
2019-01-06T16:50:02.112Z,3.20
2019-01-06T16:53:09.274Z,4.77
2019-01-06T16:55:57.300Z,3.10
2019-01-06T16:59:04.421Z,3.37
2019-01-06T17:02:12.032Z,3.10
2019-01-06T17:05:00.961Z,5.15
2019-01-06T17:10:47.800Z,3.37
2019-01-06T17:16:56.929Z,3.10
2019-01-06T17:20:05.769Z,3.07
2019-01-06T17:23:12.975Z,3.73
2019-01-06T17:26:20.118Z,6.13
2019-01-06T17:29:08.325Z,5.00
2019-01-06T17:32:15.441Z,3.87
2019-01-06T17:35:22.615Z,3.00
2019-01-06T17:38:10.789Z,3.20
2019-01-06T17:41:17.904Z,3.03
2019-01-06T17:44:25.129Z,3.70
2019-01-06T17:47:32.285Z,4.10
2019-01-06T17:53:11.144Z,2.70
2019-01-06T17:56:18.266Z,2.73
2019-01-06T17:59:25.562Z,3.27
2019-01-06T18:02:34.235Z,4.90
2019-01-06T18:08:18.075Z,1.70
2019-01-06T18:11:26.817Z,3.03
2019-01-06T18:14:34.295Z,2.50
2019-01-06T18:17:41.663Z,5.73
2019-01-06T18:20:29.880Z,10.47
2019-01-06T18:23:37.124Z,3.10
2019-01-06T18:26:44.245Z,8.00
2019-01-06T18:29:45.510Z,3.40
2019-01-06T18:32:33.645Z,2.93
2019-01-06T18:35:41.478Z,3.77
2019-01-06T18:38:48.604Z,7.90
2019-01-06T18:41:36.838Z,2.00
2019-01-06T18:44:24.749Z,6.53
2019-01-06T18:47:12.887Z,2.70
2019-01-06T18:50:20.069Z,5.70
2019-01-06T18:53:27.188Z,16.23
2019-01-06T18:56:34.286Z,6.97
2019-01-06T18:59:41.480Z,4.50
2019-01-06T19:02:29.649Z,3.37
2019-01-06T19:05:36.812Z,8.47
2019-01-06T19:08:43.889Z,2.90
2019-01-06T19:11:51.043Z,2.73
2019-01-06T19:14:58.258Z,3.73
2019-01-06T19:18:05.395Z,3.27
2019-01-06T19:21:12.556Z,2.40
2019-01-06T19:24:19.676Z,2.70
2019-01-06T19:27:26.764Z,5.07
2019-01-06T19:30:33.880Z,3.77
2019-01-06T19:33:41.278Z,2.27
2019-01-06T19:36:29.389Z,1.53
2019-01-06T19:39:36.482Z,3.00
2019-01-06T19:42:24.630Z,1.63
2019-01-06T19:45:24.095Z,1.60
2019-01-06T19:48:31.266Z,1.50
2019-01-06T19:51:38.390Z,1.83
2019-01-06T19:54:26.519Z,1.63
2019-01-06T19:57:33.646Z,1.43
2019-01-06T20:00:40.718Z,1.70
2019-01-06T20:03:47.966Z,1.90
2019-01-06T20:06:55.044Z,2.00
2019-01-06T20:10:02.169Z,2.10
2019-01-06T20:13:09.289Z,2.43
2019-01-06T20:16:16.399Z,2.80
2019-01-06T20:19:04.502Z,3.30
2019-01-06T20:21:52.552Z,2.80
2019-01-06T20:24:59.648Z,2.73
2019-01-06T20:28:06.787Z,3.00
2019-01-06T20:31:13.920Z,2.90
2019-01-06T20:34:02.217Z,3.60
2019-01-06T20:37:09.293Z,3.63
2019-01-06T20:39:57.493Z,3.73
2019-01-06T20:46:07.478Z,3.60
2019-01-06T20:49:14.582Z,4.93
2019-01-06T20:52:21.936Z,3.50
2019-01-06T20:58:24.665Z,8.00
2019-01-06T21:01:31.946Z,14.40
2019-01-06T21:04:40.672Z,6.50
2019-01-06T21:07:49.320Z,16.60
2019-01-06T21:13:32.981Z,6.67
2019-01-06T21:16:41.846Z,3.70
2019-01-06T21:19:50.491Z,3.07
2019-01-06T21:22:38.826Z,4.83
2019-01-06T21:25:46.278Z,3.70
2019-01-06T21:28:34.757Z,3.83
2019-01-06T21:31:41.971Z,3.80
2019-01-06T21:34:49.179Z,3.60
2019-01-06T21:37:56.315Z,3.87
2019-01-06T21:40:56.274Z,4.70
2019-01-06T21:43:44.558Z,3.97
2019-01-06T21:46:32.681Z,4.07
2019-01-06T21:49:39.912Z,3.53
2019-01-06T21:52:47.040Z,4.33
2019-01-06T21:55:54.176Z,3.73
2019-01-06T21:59:03.146Z,4.70
2019-01-06T22:01:51.246Z,3.90
2019-01-06T22:04:58.390Z,3.83
2019-01-06T22:08:05.671Z,4.20
2019-01-06T22:11:12.940Z,4.70
2019-01-06T22:14:01.517Z,3.73
2019-01-06T22:17:08.689Z,3.83
2019-01-06T22:20:15.838Z,4.03
2019-01-06T22:23:22.987Z,4.20
2019-01-06T22:26:30.213Z,4.47
2019-01-06T22:29:37.343Z,4.80
2019-01-06T22:32:44.490Z,4.73
2019-01-06T22:35:32.672Z,5.10
2019-01-06T22:38:39.784Z,4.10
2019-01-06T22:44:39.576Z,4.50
2019-01-06T22:47:46.701Z,4.30
2019-01-06T22:50:53.851Z,4.70
2019-01-06T22:53:41.945Z,4.57
2019-01-06T22:56:49.198Z,4.53
2019-01-06T22:59:37.323Z,3.93
2019-01-06T23:02:25.443Z,4.47
2019-01-06T23:05:32.606Z,4.53
2019-01-06T23:08:39.671Z,4.20
2019-01-06T23:11:27.791Z,4.60
2019-01-06T23:14:34.966Z,4.07
2019-01-06T23:17:23.239Z,4.40
2019-01-06T23:20:11.491Z,3.90
2019-01-06T23:22:59.730Z,4.60
2019-01-06T23:25:48.349Z,4.40
2019-01-06T23:28:55.515Z,4.70
2019-01-06T23:32:02.662Z,4.57
2019-01-06T23:35:09.781Z,4.40
2019-01-06T23:37:57.985Z,4.57
2019-01-06T23:41:05.186Z,4.17
2019-01-06T23:44:12.483Z,4.03
2019-01-06T23:47:19.683Z,4.33
2019-01-06T23:50:26.912Z,4.40
2019-01-06T23:53:34.095Z,5.50
2019-01-06T23:56:41.260Z,4.50
2019-01-06T23:59:48.396Z,4.63
